Time;durP1;ratioP1;P1;durP2;ratioP2;P2;SDS_P1;SDS_P2;PMS_P1;PMS_P2;Temp;Humidity;BMP_temperature;BMP_pressure;BME280_temperature;BME280_humidity;BME280_pressure;Samples;Min_cycle;Max_cycle;Signal;HPM_P1;HPM_P2
2023/11/29 00:00:17;;;;;;;0.70;0.43;;;;;;;7.59;66.98;93366.88;5080351;28;20506;-73
2023/11/29 00:02:42;;;;;;;1.13;0.57;;;;;;;7.58;67.26;93370.84;5094555;28;20028;-73
2023/11/29 00:05:08;;;;;;;0.30;0.28;;;;;;;7.57;67.36;93383.00;5096861;28;20036;-72
2023/11/29 00:07:34;;;;;;;1.63;0.30;;;;;;;7.46;67.75;93379.94;5093778;28;20027;-72
2023/11/29 00:09:59;;;;;;;1.17;0.60;;;;;;;7.47;67.55;93397.13;5096104;28;20074;-72
2023/11/29 00:12:25;;;;;;;0.60;0.20;;;;;;;7.45;67.46;93398.34;5093208;28;20027;-72
2023/11/29 00:14:50;;;;;;;0.20;0.20;;;;;;;7.29;68.08;93392.38;5085637;28;20030;-73
2023/11/29 00:17:16;;;;;;;0.57;0.40;;;;;;;7.25;68.03;93389.03;5085847;28;20042;-72
2023/11/29 00:19:42;;;;;;;0.85;0.30;;;;;;;7.13;68.51;93399.63;5085520;28;20111;-73
2023/11/29 00:22:07;;;;;;;0.68;0.30;;;;;;;7.13;68.82;93413.28;5083307;28;20185;-72
2023/11/29 00:24:32;;;;;;;0.43;0.35;;;;;;;7.08;68.82;93418.59;5097644;28;20089;-72
2023/11/29 00:26:58;;;;;;;0.60;0.40;;;;;;;6.95;69.09;93426.13;5084697;28;20024;-72
2023/11/29 00:29:24;;;;;;;0.93;0.50;;;;;;;6.90;69.03;93432.94;5095513;28;20122;-73
2023/11/29 00:31:50;;;;;;;0.95;0.60;;;;;;;6.87;69.35;93442.03;5091874;28;20089;-72
2023/11/29 00:34:15;;;;;;;2.33;1.00;;;;;;;6.88;69.36;93441.59;5084562;28;20024;-73
2023/11/29 00:36:40;;;;;;;2.10;0.88;;;;;;;6.80;69.69;93440.31;5084857;28;20073;-72
2023/11/29 00:39:06;;;;;;;1.85;1.30;;;;;;;6.94;69.61;93460.91;5088506;28;20054;-73
2023/11/29 00:41:31;;;;;;;1.90;1.23;;;;;;;6.96;69.20;93453.00;5088938;28;20022;-73
2023/11/29 00:43:56;;;;;;;2.00;1.50;;;;;;;6.83;69.96;93439.44;5094612;28;20509;-73
2023/11/29 00:46:22;;;;;;;2.05;1.50;;;;;;;6.79;70.29;93455.19;5094973;28;20024;-72
2023/11/29 00:48:47;;;;;;;3.20;1.85;;;;;;;6.74;70.56;93463.97;5098887;28;20028;-72
2023/11/29 00:51:13;;;;;;;2.50;1.77;;;;;;;6.75;70.42;93487.34;5087191;28;20024;-72
2023/11/29 00:53:38;;;;;;;2.85;1.58;;;;;;;6.65;70.50;93493.94;5087199;28;20039;-72
2023/11/29 00:56:04;;;;;;;2.35;1.70;;;;;;;6.70;70.34;93496.09;5099662;28;20035;-72
2023/11/29 00:58:29;;;;;;;3.38;1.70;;;;;;;6.71;70.23;93502.31;5105059;28;20028;-72
2023/11/29 01:00:55;;;;;;;2.45;1.60;;;;;;;6.64;70.30;93508.81;5106846;28;20028;-72
2023/11/29 01:03:20;;;;;;;3.22;1.88;;;;;;;6.57;70.07;93501.66;5107410;28;20085;-72
2023/11/29 01:05:45;;;;;;;2.85;1.40;;;;;;;6.51;70.53;93503.44;5093901;28;20039;-72
2023/11/29 01:08:11;;;;;;;2.33;1.50;;;;;;;6.37;70.43;93512.16;5099772;28;20488;-72
2023/11/29 01:10:39;;;;;;;2.20;1.33;;;;;;;6.39;70.66;93507.75;5104848;28;20034;-72
2023/11/29 01:13:06;;;;;;;2.45;1.55;;;;;;;6.40;70.48;93505.78;5105308;28;20036;-72
2023/11/29 01:15:31;;;;;;;1.75;1.38;;;;;;;6.34;70.32;93502.09;5092147;28;20043;-72
2023/11/29 01:17:57;;;;;;;2.20;1.60;;;;;;;6.34;70.29;93511.03;5106571;28;20027;-71
2023/11/29 01:20:22;;;;;;;2.45;1.40;;;;;;;6.34;70.27;93519.25;5106646;28;20027;-72
2023/11/29 01:22:48;;;;;;;1.40;1.27;;;;;;;6.35;69.89;93526.22;5059226;28;20134;-74
2023/11/29 01:25:13;;;;;;;2.13;1.33;;;;;;;6.29;69.73;93536.19;5096940;28;20158;-73
2023/11/29 01:27:38;;;;;;;2.88;1.40;;;;;;;6.32;69.56;93529.09;5093415;28;20019;-72
2023/11/29 01:30:04;;;;;;;2.08;1.42;;;;;;;6.25;69.79;93542.97;5091766;28;20410;-73
2023/11/29 01:32:30;;;;;;;2.40;1.50;;;;;;;6.19;69.72;93547.44;5104370;28;20449;-72
2023/11/29 01:34:55;;;;;;;1.90;1.40;;;;;;;6.21;69.62;93545.81;5104669;28;20042;-73
2023/11/29 01:37:21;;;;;;;1.65;1.33;;;;;;;6.17;69.47;93563.50;5091261;28;20032;-73
2023/11/29 01:39:48;;;;;;;1.90;1.25;;;;;;;6.15;69.36;93561.25;5100202;28;20456;-73
2023/11/29 01:42:14;;;;;;;2.00;1.38;;;;;;;6.14;69.40;93573.34;5067508;28;20033;-73
2023/11/29 01:44:39;;;;;;;2.30;1.38;;;;;;;6.12;69.13;93565.59;5089254;28;20036;-72
2023/11/29 01:47:09;;;;;;;1.80;1.20;;;;;;;6.03;68.59;93575.69;5086646;28;20024;-72
2023/11/29 01:49:35;;;;;;;1.70;1.30;;;;;;;6.01;68.50;93581.56;5085651;28;20066;-72
2023/11/29 01:52:01;;;;;;;1.10;0.90;;;;;;;6.10;68.55;93587.09;5087258;28;20059;-72
2023/11/29 01:54:27;;;;;;;1.92;1.10;;;;;;;6.12;68.39;93584.69;5088825;28;20020;-72
2023/11/29 01:56:52;;;;;;;1.33;0.90;;;;;;;6.05;68.33;93587.66;5085539;28;20032;-72
2023/11/29 01:59:18;;;;;;;1.67;1.20;;;;;;;6.00;68.55;93590.94;5087741;28;20032;-71
2023/11/29 02:01:43;;;;;;;1.95;1.10;;;;;;;6.02;68.61;93602.19;5089253;28;20120;-72
2023/11/29 02:04:09;;;;;;;0.85;0.60;;;;;;;6.05;68.30;93589.63;5103883;28;20089;-73
2023/11/29 02:06:35;;;;;;;1.83;1.17;;;;;;;6.03;68.34;93578.41;5065624;28;20540;-73
2023/11/29 02:09:00;;;;;;;1.10;0.85;;;;;;;5.97;68.57;93580.16;5065597;28;20490;-72
2023/11/29 02:11:28;;;;;;;1.00;0.90;;;;;;;6.00;68.08;93579.28;5082651;28;20028;-73
2023/11/29 02:13:54;;;;;;;1.08;0.75;;;;;;;6.00;68.47;93592.91;5065062;28;20471;-73
2023/11/29 02:16:19;;;;;;;1.25;0.68;;;;;;;6.05;67.65;93589.63;5105937;28;20114;-73
2023/11/29 02:18:45;;;;;;;2.47;0.70;;;;;;;6.04;67.49;93601.75;5103577;28;20027;-72
2023/11/29 02:21:10;;;;;;;1.13;0.70;;;;;;;6.06;67.37;93597.38;5104513;28;20447;-72
2023/11/29 02:23:45;;;;;;;0.98;0.60;;;;;;;6.05;67.34;93603.28;5085310;28;20020;-73
2023/11/29 02:26:10;;;;;;;0.90;0.60;;;;;;;5.96;67.57;93598.47;5105677;28;20562;-73
2023/11/29 02:28:36;;;;;;;0.63;0.52;;;;;;;5.90;67.85;93605.66;5105431;28;20027;-72
2023/11/29 02:31:01;;;;;;;1.45;0.90;;;;;;;5.96;67.92;93608.63;5078820;28;20074;-73
2023/11/29 02:33:26;;;;;;;1.13;0.73;;;;;;;5.92;67.52;93610.72;5087689;28;20359;-73
2023/11/29 02:35:52;;;;;;;0.95;0.80;;;;;;;5.88;67.99;93618.97;5102225;28;20059;-73
2023/11/29 02:38:18;;;;;;;1.38;0.73;;;;;;;5.89;67.86;93617.78;5085538;28;20453;-73
2023/11/29 02:40:43;;;;;;;1.52;0.82;;;;;;;5.91;67.91;93618.16;5084838;28;20052;-73
2023/11/29 02:43:09;;;;;;;1.00;0.60;;;;;;;5.93;67.72;93612.25;5085505;28;20077;-74
2023/11/29 02:45:34;;;;;;;1.30;0.80;;;;;;;5.90;67.50;93616.56;5100758;28;20114;-72
2023/11/29 02:47:59;;;;;;;1.15;0.73;;;;;;;5.84;67.76;93615.59;5082472;28;20470;-72
2023/11/29 02:50:25;;;;;;;1.48;0.73;;;;;;;5.81;67.99;93611.03;5096189;28;20020;-72
2023/11/29 02:52:50;;;;;;;1.13;0.70;;;;;;;5.83;67.68;93616.81;5087831;28;20024;-73
2023/11/29 02:55:16;;;;;;;1.30;0.68;;;;;;;5.84;67.27;93618.31;5097912;28;20030;-72
2023/11/29 02:57:41;;;;;;;1.40;0.70;;;;;;;5.82;67.40;93615.28;5084723;28;20478;-73
2023/11/29 03:00:09;;;;;;;0.70;0.47;;;;;;;5.83;67.13;93623.03;5085405;28;20517;-72
2023/11/29 03:02:34;;;;;;;0.77;0.47;;;;;;;5.80;67.05;93623.16;5085468;28;20046;-73
2023/11/29 03:05:00;;;;;;;0.57;0.47;;;;;;;5.83;67.16;93624.97;5096329;28;20032;-73
2023/11/29 03:07:25;;;;;;;0.73;0.50;;;;;;;5.85;66.93;93631.53;5103459;28;20587;-73
2023/11/29 03:09:50;;;;;;;1.42;0.70;;;;;;;5.84;66.18;93629.22;5094221;28;20024;-73
2023/11/29 03:12:16;;;;;;;0.63;0.50;;;;;;;5.86;66.37;93637.75;5100302;28;20028;-73
2023/11/29 03:14:41;;;;;;;0.70;0.60;;;;;;;5.80;66.40;93640.28;5085586;28;20051;-73
2023/11/29 03:17:07;;;;;;;1.35;0.70;;;;;;;5.84;66.70;93634.69;5104933;28;20039;-73
2023/11/29 03:19:32;;;;;;;0.90;0.70;;;;;;;5.77;66.52;93635.69;5104047;28;20024;-73
2023/11/29 03:21:57;;;;;;;0.88;0.50;;;;;;;5.76;66.59;93638.84;5086793;28;20173;-73
2023/11/29 03:24:23;;;;;;;0.60;0.50;;;;;;;5.76;66.72;93645.06;5086876;28;20486;-73
2023/11/29 03:26:48;;;;;;;1.30;0.60;;;;;;;5.88;66.39;93632.63;5084545;28;20042;-73
2023/11/29 03:29:14;;;;;;;0.60;0.43;;;;;;;5.85;66.20;93637.00;5085566;28;20035;-73
2023/11/29 03:31:39;;;;;;;2.03;0.73;;;;;;;5.84;66.61;93653.78;5084950;28;20032;-73
2023/11/29 03:34:04;;;;;;;1.00;0.70;;;;;;;5.92;66.48;93649.66;5086770;28;20441;-73
2023/11/29 03:36:30;;;;;;;0.82;0.50;;;;;;;5.85;66.65;93649.88;5096874;28;20020;-72
2023/11/29 03:38:55;;;;;;;0.82;0.73;;;;;;;5.95;65.92;93658.94;5095877;28;20032;-73
2023/11/29 03:41:21;;;;;;;1.10;0.55;;;;;;;5.87;66.06;93650.19;5105497;28;20027;-72
2023/11/29 03:43:46;;;;;;;1.60;0.90;;;;;;;5.85;66.25;93645.19;5104347;28;20027;-72
2023/11/29 03:46:11;;;;;;;0.88;0.70;;;;;;;5.86;66.49;93656.84;5105651;28;20485;-72
2023/11/29 03:48:37;;;;;;;1.10;0.73;;;;;;;5.83;65.86;93649.53;5104016;28;20443;-72
2023/11/29 03:51:03;;;;;;;1.17;0.73;;;;;;;5.80;65.94;93653.16;5104018;28;20107;-73
2023/11/29 03:53:28;;;;;;;1.65;0.75;;;;;;;5.81;65.84;93646.50;5087259;28;20108;-72
2023/11/29 03:55:53;;;;;;;1.00;0.75;;;;;;;5.82;65.62;93639.81;5096766;28;20030;-73
2023/11/29 03:58:19;;;;;;;2.22;0.90;;;;;;;5.83;65.35;93644.06;5067920;28;20422;-72
2023/11/29 04:00:44;;;;;;;0.80;0.60;;;;;;;5.82;65.30;93656.94;5064318;28;20475;-73
2023/11/29 04:03:09;;;;;;;0.82;0.70;;;;;;;5.80;65.05;93672.25;5087844;28;20487;-72
2023/11/29 04:05:35;;;;;;;2.13;1.30;;;;;;;5.79;65.35;93662.50;5105789;28;20093;-74
2023/11/29 04:08:01;;;;;;;1.67;0.80;;;;;;;5.75;65.23;93676.25;5102429;28;20066;-74
2023/11/29 04:10:29;;;;;;;1.08;0.90;;;;;;;5.66;65.48;93670.69;5103658;28;20104;-73
2023/11/29 04:12:54;;;;;;;1.23;0.90;;;;;;;5.60;65.67;93665.00;5105732;28;20035;-73
2023/11/29 04:15:20;;;;;;;0.98;0.85;;;;;;;5.72;65.34;93671.66;5096322;28;20024;-72
2023/11/29 04:17:46;;;;;;;1.20;1.00;;;;;;;5.74;65.24;93660.34;5089605;28;20058;-73
2023/11/29 04:20:11;;;;;;;2.50;1.13;;;;;;;5.68;65.28;93673.75;5088564;28;20052;-73
2023/11/29 04:22:37;;;;;;;2.00;1.40;;;;;;;5.65;65.50;93669.16;5067596;28;20105;-73
2023/11/29 04:25:07;;;;;;;2.58;1.60;;;;;;;5.67;65.59;93677.66;5099366;28;20035;-72
2023/11/29 04:27:32;;;;;;;3.97;2.60;;;;;;;5.59;65.52;93679.84;5108051;28;20028;-73
2023/11/29 04:29:57;;;;;;;2.15;1.42;;;;;;;5.53;65.93;93689.78;5101403;28;20032;-73
2023/11/29 04:32:23;;;;;;;1.40;1.00;;;;;;;5.52;65.59;93677.34;5095368;28;20114;-72
2023/11/29 04:34:49;;;;;;;1.90;1.40;;;;;;;5.41;66.24;93685.06;5099278;28;20020;-73
2023/11/29 04:37:14;;;;;;;1.88;1.27;;;;;;;5.46;66.06;93684.53;5090100;28;20024;-73
2023/11/29 04:39:40;;;;;;;1.33;1.02;;;;;;;5.44;65.95;93681.44;5097012;28;20036;-73
2023/11/29 04:42:05;;;;;;;1.67;1.40;;;;;;;5.47;65.94;93680.59;5087367;28;20549;-72
2023/11/29 04:44:31;;;;;;;2.30;1.77;;;;;;;5.43;65.89;93679.94;5087257;28;20047;-73
2023/11/29 04:46:56;;;;;;;3.10;1.98;;;;;;;5.40;66.06;93678.09;5106444;28;20076;-72
2023/11/29 04:49:22;;;;;;;2.40;1.50;;;;;;;5.34;66.17;93685.28;5090557;28;20433;-72
2023/11/29 04:51:48;;;;;;;2.60;1.83;;;;;;;5.36;66.32;93693.78;5075398;28;20035;-72
2023/11/29 04:54:13;;;;;;;2.88;2.22;;;;;;;5.43;66.06;93693.56;5088927;28;20027;-71
2023/11/29 04:56:38;;;;;;;3.15;2.22;;;;;;;5.40;66.05;93694.44;5100015;28;20035;-72
2023/11/29 04:59:04;;;;;;;2.63;2.22;;;;;;;5.36;66.10;93676.66;5088443;28;20031;-73
2023/11/29 05:01:29;;;;;;;3.40;2.65;;;;;;;5.42;65.92;93672.19;5088663;28;20025;-72
2023/11/29 05:03:54;;;;;;;3.28;2.97;;;;;;;5.32;65.81;93654.94;5066400;28;20040;-73
2023/11/29 05:06:20;;;;;;;5.15;3.15;;;;;;;5.35;65.79;93666.97;5084744;28;20016;-72
2023/11/29 05:08:45;;;;;;;3.75;3.13;;;;;;;5.36;65.82;93666.53;5089377;28;20110;-70
2023/11/29 05:11:11;;;;;;;4.97;3.00;;;;;;;5.36;65.69;93674.69;5095320;28;20032;-73
2023/11/29 05:13:36;;;;;;;4.90;2.50;;;;;;;5.34;65.67;93688.00;5097210;28;20061;-73
2023/11/29 05:16:02;;;;;;;4.32;2.80;;;;;;;5.28;65.73;93679.59;5106950;28;20023;-71
2023/11/29 05:18:27;;;;;;;3.78;2.15;;;;;;;5.25;65.92;93682.41;5107060;28;20036;-71
2023/11/29 05:20:53;;;;;;;4.03;2.30;;;;;;;5.28;65.70;93682.31;5107150;28;20059;-71
2023/11/29 05:23:19;;;;;;;2.90;2.28;;;;;;;5.21;65.93;93679.00;5103858;28;20052;-73
2023/11/29 05:25:44;;;;;;;3.83;2.60;;;;;;;5.17;66.02;93683.81;5105734;28;20489;-73
2023/11/29 05:28:10;;;;;;;4.07;2.47;;;;;;;5.19;65.86;93681.41;5106847;28;20239;-73
2023/11/29 05:30:35;;;;;;;2.92;2.22;;;;;;;5.19;65.83;93686.88;5106569;28;20019;-73
2023/11/29 05:33:03;;;;;;;3.60;2.50;;;;;;;5.15;65.87;93692.41;5107810;28;20156;-72
2023/11/29 05:35:30;;;;;;;2.90;2.40;;;;;;;5.06;66.06;93695.78;5106732;28;20577;-73
2023/11/29 05:37:55;;;;;;;2.88;2.20;;;;;;;5.06;66.09;93693.03;5106236;28;20165;-73
2023/11/29 05:40:21;;;;;;;3.55;2.20;;;;;;;5.06;66.39;93690.31;5108095;27;20487;-74
2023/11/29 05:42:46;;;;;;;3.83;2.80;;;;;;;5.10;66.08;93692.94;5108047;28;20032;-73
2023/11/29 05:45:13;;;;;;;2.70;2.30;;;;;;;5.08;66.44;93689.88;5106687;28;20024;-73
2023/11/29 05:47:38;;;;;;;3.95;2.58;;;;;;;5.14;66.50;93696.34;5106831;28;20097;-74
2023/11/29 05:50:05;;;;;;;3.58;2.42;;;;;;;5.15;66.07;93702.53;5089367;28;20031;-74
2023/11/29 05:52:30;;;;;;;4.68;2.92;;;;;;;5.15;66.09;93700.56;5106377;28;20501;-73
2023/11/29 05:54:55;;;;;;;4.45;3.22;;;;;;;5.22;65.96;93703.13;5106095;28;20169;-74
2023/11/29 05:57:21;;;;;;;5.28;3.25;;;;;;;5.20;65.86;93708.22;5108221;28;20028;-74
2023/11/29 05:59:46;;;;;;;5.38;2.97;;;;;;;5.28;65.46;93727.88;5107504;28;20482;-73
2023/11/29 06:02:12;;;;;;;5.03;3.22;;;;;;;5.27;65.45;93723.59;5108161;27;20034;-74
2023/11/29 06:04:37;;;;;;;4.15;2.78;;;;;;;5.28;65.57;93725.91;5107847;28;20439;-73
2023/11/29 06:07:03;;;;;;;3.60;2.72;;;;;;;5.33;65.13;93714.50;5107761;28;20059;-73
2023/11/29 06:09:30;;;;;;;4.32;2.45;;;;;;;5.29;65.03;93713.06;5106567;28;20027;-72
2023/11/29 06:11:56;;;;;;;4.00;2.63;;;;;;;5.39;64.65;93709.28;5105869;28;20201;-74
2023/11/29 06:14:27;;;;;;;3.65;2.53;;;;;;;5.42;64.21;93711.13;5088828;28;20024;-73
2023/11/29 06:16:53;;;;;;;3.72;2.45;;;;;;;5.42;64.34;93702.19;5104985;28;20452;-73
2023/11/29 06:19:20;;;;;;;2.92;2.28;;;;;;;5.41;64.02;93708.84;5106426;28;20081;-73
2023/11/29 06:21:46;;;;;;;4.35;2.67;;;;;;;5.38;64.08;93713.16;5103957;28;20032;-73
2023/11/29 06:24:12;;;;;;;4.57;2.63;;;;;;;5.36;64.09;93718.31;5105953;28;20549;-73
2023/11/29 06:26:37;;;;;;;4.05;2.63;;;;;;;5.38;63.92;93731.50;5107192;28;20035;-73
2023/11/29 06:29:04;;;;;;;3.15;2.53;;;;;;;5.45;63.78;93732.06;5105595;28;20026;-73
2023/11/29 06:31:31;;;;;;;3.15;2.13;;;;;;;5.22;63.76;93711.31;5105261;28;20088;-72
2023/11/29 06:33:56;;;;;;;3.92;2.58;;;;;;;5.39;63.80;93738.47;5105375;28;20032;-73
2023/11/29 06:36:22;;;;;;;3.47;2.45;;;;;;;5.40;63.92;93740.78;5107201;28;20027;-74
2023/11/29 06:38:47;;;;;;;3.83;2.60;;;;;;;5.45;63.66;93744.91;5105318;28;20023;-73
2023/11/29 06:41:12;;;;;;;3.47;2.28;;;;;;;5.42;63.77;93752.00;5105600;28;20028;-74
2023/11/29 06:43:39;;;;;;;3.47;2.15;;;;;;;5.49;63.36;93759.97;5105509;28;20105;-73
2023/11/29 06:46:04;;;;;;;5.45;2.25;;;;;;;5.46;63.68;93763.56;5105935;28;20355;-74
2023/11/29 06:48:31;;;;;;;3.85;2.55;;;;;;;5.42;64.07;93764.88;5104050;28;20034;-72
2023/11/29 06:51:00;;;;;;;4.05;2.45;;;;;;;5.41;63.99;93764.09;5104363;28;20028;-74
2023/11/29 06:53:26;;;;;;;5.22;2.85;;;;;;;5.42;64.08;93764.88;5107145;28;20020;-74
2023/11/29 06:55:51;;;;;;;4.78;2.95;;;;;;;5.43;63.81;93772.59;5104893;28;20034;-73
2023/11/29 06:58:16;;;;;;;5.63;3.15;;;;;;;5.44;63.83;93774.13;5105767;28;20050;-72
2023/11/29 07:00:43;;;;;;;4.75;2.95;;;;;;;5.55;63.58;93777.31;5105236;28;20023;-77
2023/11/29 07:03:09;;;;;;;3.88;3.03;;;;;;;5.62;63.50;93786.50;5088454;28;20030;-74
2023/11/29 07:05:34;;;;;;;3.88;2.58;;;;;;;5.60;63.74;93787.69;5106824;28;20024;-74
2023/11/29 07:08:00;;;;;;;5.90;3.58;;;;;;;5.66;63.63;93798.06;5104678;28;20032;-73
2023/11/29 07:10:26;;;;;;;4.07;2.88;;;;;;;5.71;63.58;93809.22;5106637;28;20058;-73
2023/11/29 07:12:55;;;;;;;5.85;3.13;;;;;;;5.72;63.71;93812.69;5104505;28;20073;-73
2023/11/29 07:15:20;;;;;;;5.35;3.00;;;;;;;5.74;63.40;93810.31;5106607;28;20078;-73
2023/11/29 07:17:46;;;;;;;5.30;3.40;;;;;;;5.87;63.11;93813.84;5104689;28;20561;-73
2023/11/29 07:20:11;;;;;;;5.05;3.40;;;;;;;5.94;62.54;93812.91;5106502;28;20051;-73
2023/11/29 07:22:37;;;;;;;7.70;4.30;;;;;;;5.97;62.32;93822.97;5106331;28;20031;-73
2023/11/29 07:25:03;;;;;;;7.53;3.97;;;;;;;5.93;62.69;93820.31;5105716;28;20045;-73
2023/11/29 07:27:28;;;;;;;7.03;4.10;;;;;;;5.98;62.72;93814.31;5088337;28;20031;-72
2023/11/29 07:29:54;;;;;;;6.60;3.75;;;;;;;6.02;62.48;93816.94;5104145;28;20031;-73
2023/11/29 07:32:22;;;;;;;8.60;4.70;;;;;;;6.04;62.66;93820.00;5104617;28;20028;-72
2023/11/29 07:34:51;;;;;;;6.82;4.15;;;;;;;6.11;62.08;93817.84;5104219;28;20489;-72
2023/11/29 07:37:19;;;;;;;5.10;3.53;;;;;;;6.06;62.26;93818.38;5105132;28;20059;-72
2023/11/29 07:39:45;;;;;;;7.57;4.57;;;;;;;6.16;62.24;93821.22;5104671;28;20026;-72
2023/11/29 07:42:10;;;;;;;7.07;4.40;;;;;;;6.17;62.13;93826.25;5104767;28;20027;-73
2023/11/29 07:44:36;;;;;;;10.48;5.85;;;;;;;6.24;62.69;93820.56;5106265;28;20114;-73
2023/11/29 07:47:03;;;;;;;12.70;7.72;;;;;;;6.35;62.98;93831.16;5103691;28;20120;-72
2023/11/29 07:49:29;;;;;;;10.15;6.32;;;;;;;6.59;62.34;93817.94;5104916;28;20069;-73
2023/11/29 07:51:55;;;;;;;8.65;5.82;;;;;;;7.03;61.64;93820.84;5105409;28;20038;-71
2023/11/29 07:54:20;;;;;;;10.75;6.55;;;;;;;7.35;60.43;93828.75;5105064;28;20027;-73
2023/11/29 07:56:46;;;;;;;9.90;6.03;;;;;;;7.35;60.16;93828.75;5104397;28;20020;-73
2023/11/29 07:59:12;;;;;;;7.47;5.13;;;;;;;7.85;59.10;93826.22;5104776;28;20015;-72
2023/11/29 08:01:38;;;;;;;14.10;9.43;;;;;;;7.99;58.40;93820.25;5106510;28;20102;-82
2023/11/29 08:04:04;;;;;;;19.10;10.77;;;;;;;8.02;58.85;93833.03;5086988;28;20173;-80
2023/11/29 08:06:30;;;;;;;15.27;9.68;;;;;;;7.95;59.05;93834.06;5106284;28;20023;-75
2023/11/29 08:08:56;;;;;;;12.02;9.57;;;;;;;7.79;58.91;93841.69;5086871;28;20034;-73
2023/11/29 08:11:21;;;;;;;11.38;7.63;;;;;;;7.73;59.00;93855.16;5087515;28;20493;-73
2023/11/29 08:13:47;;;;;;;12.98;9.05;;;;;;;7.68;58.76;93853.78;5104180;28;20024;-73
2023/11/29 08:16:12;;;;;;;14.02;9.80;;;;;;;7.67;59.39;93865.16;5104522;28;20043;-74
2023/11/29 08:18:37;;;;;;;15.15;10.60;;;;;;;7.65;59.83;93870.31;5087352;28;20032;-73
2023/11/29 08:21:03;;;;;;;15.57;10.02;;;;;;;7.73;59.53;93868.84;5105490;28;20603;-74
2023/11/29 08:23:28;;;;;;;16.02;10.75;;;;;;;7.84;59.33;93882.16;5105650;28;20522;-70
2023/11/29 08:25:55;;;;;;;16.27;9.40;;;;;;;8.03;59.20;93878.38;5105335;28;20030;-72
2023/11/29 08:28:21;;;;;;;14.57;7.50;;;;;;;8.21;58.41;93892.16;5104559;28;20032;-71
2023/11/29 08:30:46;;;;;;;11.98;7.47;;;;;;;8.52;57.39;93880.50;5105370;28;20024;-75
2023/11/29 08:33:11;;;;;;;12.77;8.65;;;;;;;8.73;56.80;93887.91;5104423;28;20119;-76
2023/11/29 08:35:37;;;;;;;12.82;8.32;;;;;;;8.78;56.60;93879.09;5087456;28;20756;-71
2023/11/29 08:38:02;;;;;;;11.23;6.70;;;;;;;8.91;55.97;93880.97;5105658;28;20034;-72
2023/11/29 08:40:28;;;;;;;9.68;6.70;;;;;;;9.04;55.31;93878.88;5105888;28;20490;-71
2023/11/29 08:42:53;;;;;;;10.60;6.95;;;;;;;9.18;54.54;93885.78;5105433;28;20111;-77
2023/11/29 08:45:19;;;;;;;14.55;7.18;;;;;;;9.41;53.86;93887.97;5104217;28;20031;-75
2023/11/29 08:47:45;;;;;;;11.35;7.32;;;;;;;9.88;52.65;93895.03;5086703;28;20028;-74
2023/11/29 08:50:10;;;;;;;11.50;7.35;;;;;;;9.88;52.84;93892.28;5104064;28;20035;-73
2023/11/29 08:52:36;;;;;;;13.05;7.68;;;;;;;9.77;52.74;93900.97;5103765;28;20028;-72
2023/11/29 08:55:04;;;;;;;12.48;6.97;;;;;;;9.73;52.46;93908.59;5104223;28;20023;-75
2023/11/29 08:57:31;;;;;;;10.23;7.00;;;;;;;9.62;52.59;93908.28;5087449;28;20112;-76
2023/11/29 08:59:57;;;;;;;10.00;6.40;;;;;;;9.57;52.63;93900.63;5107153;28;20057;-75
2023/11/29 09:02:23;;;;;;;10.18;6.57;;;;;;;9.62;52.27;93893.78;5090563;28;20062;-72
2023/11/29 09:04:49;;;;;;;9.82;6.85;;;;;;;9.65;52.30;93895.63;5107228;28;20460;-76
2023/11/29 09:07:16;;;;;;;10.48;6.00;;;;;;;9.95;51.58;93881.00;5107663;28;20436;-73
2023/11/29 09:09:43;;;;;;;7.95;6.18;;;;;;;9.74;52.15;93901.88;5107191;28;20119;-73
2023/11/29 09:12:12;;;;;;;10.40;6.03;;;;;;;9.57;52.52;93895.16;5107694;28;20034;-73
2023/11/29 09:14:38;;;;;;;7.97;6.30;;;;;;;9.47;52.68;93888.16;5107448;28;20046;-72
2023/11/29 09:17:04;;;;;;;9.18;6.47;;;;;;;9.32;52.96;93888.72;5090412;28;20481;-73
2023/11/29 09:19:32;;;;;;;9.80;6.78;;;;;;;9.31;53.48;93886.44;5107097;28;20035;-73
2023/11/29 09:21:58;;;;;;;10.93;6.75;;;;;;;9.35;53.52;93876.09;5108004;28;20136;-73
2023/11/29 09:24:23;;;;;;;9.60;6.35;;;;;;;9.26;53.18;93882.31;5108591;28;20051;-75
2023/11/29 09:26:49;;;;;;;8.70;5.55;;;;;;;9.29;53.55;93892.38;5106574;28;20042;-75
2023/11/29 09:29:15;;;;;;;9.15;5.38;;;;;;;9.21;53.54;93882.91;5090115;28;20073;-75
2023/11/29 09:31:40;;;;;;;8.40;5.38;;;;;;;9.13;53.60;93895.38;5108114;28;20024;-74
2023/11/29 09:34:07;;;;;;;9.38;5.38;;;;;;;9.01;53.94;93885.28;5090284;28;20638;-74
2023/11/29 09:36:33;;;;;;;8.20;5.05;;;;;;;8.95;53.91;93896.06;5106810;28;20031;-74
2023/11/29 09:38:58;;;;;;;7.85;4.30;;;;;;;8.87;54.28;93894.81;5108258;28;20103;-76
2023/11/29 09:41:24;;;;;;;9.10;4.65;;;;;;;8.90;54.37;93895.91;5106871;28;20028;-73
2023/11/29 09:43:49;;;;;;;4.63;3.58;;;;;;;8.88;54.23;93892.84;5106581;28;20474;-72
2023/11/29 09:46:15;;;;;;;5.95;3.97;;;;;;;8.79;54.38;93893.56;5106753;28;20044;-76
2023/11/29 09:48:42;;;;;;;7.93;5.28;;;;;;;8.62;55.55;93893.03;5106506;28;20031;-76
2023/11/29 09:51:07;;;;;;;6.93;4.80;;;;;;;8.55;55.89;93896.06;5107122;28;20036;-75
2023/11/29 09:53:33;;;;;;;7.30;5.20;;;;;;;8.54;55.89;93899.22;5106484;28;20035;-75
2023/11/29 09:55:58;;;;;;;8.13;5.72;;;;;;;8.54;55.59;93902.72;5108215;28;20077;-76
2023/11/29 09:58:24;;;;;;;6.53;4.50;;;;;;;8.55;55.36;93907.00;5106613;28;20580;-75
2023/11/29 10:00:49;;;;;;;10.40;5.57;;;;;;;8.36;56.00;93911.59;5106274;28;20034;-78
2023/11/29 10:03:15;;;;;;;6.30;4.22;;;;;;;8.27;56.75;93910.75;5108105;28;20020;-76
2023/11/29 10:05:45;;;;;;;7.40;5.38;;;;;;;8.18;57.03;93909.47;5089214;28;20042;-77
2023/11/29 10:08:16;;;;;;;5.82;4.53;;;;;;;8.01;57.94;93894.44;5106805;28;20024;-76
2023/11/29 10:10:42;;;;;;;8.52;5.03;;;;;;;7.94;58.82;93906.41;5107077;28;20055;-77
2023/11/29 10:13:08;;;;;;;8.32;5.50;;;;;;;7.96;59.48;93917.69;5106860;28;20102;-76
2023/11/29 10:15:34;;;;;;;10.23;7.28;;;;;;;7.97;59.37;93910.22;5089148;28;20103;-77
2023/11/29 10:18:01;;;;;;;11.23;6.70;;;;;;;8.01;59.91;93919.09;5106055;28;20108;-77
2023/11/29 10:20:27;;;;;;;10.75;6.18;;;;;;;8.02;59.94;93917.09;5107396;28;20439;-73
2023/11/29 10:22:52;;;;;;;10.57;5.95;;;;;;;8.15;59.71;93917.84;5088590;28;20480;-74
2023/11/29 10:25:20;;;;;;;12.10;5.57;;;;;;;8.17;59.51;93907.19;5088980;28;20114;-78
2023/11/29 10:27:46;;;;;;;11.80;6.28;;;;;;;8.08;59.90;93913.34;5105723;28;20429;-74
2023/11/29 10:30:13;;;;;;;9.30;5.28;;;;;;;7.96;60.61;93911.44;5105987;28;20104;-83
2023/11/29 10:32:40;;;;;;;10.98;6.15;;;;;;;7.96;60.46;93920.41;5105877;28;20028;-74
2023/11/29 10:35:07;;;;;;;7.13;3.97;;;;;;;7.98;59.71;93926.22;5106033;28;20027;-73
2023/11/29 10:37:33;;;;;;;4.53;3.70;;;;;;;7.96;59.46;93927.84;5105754;28;20031;-78
2023/11/29 10:39:59;;;;;;;4.95;3.45;;;;;;;7.87;60.50;93922.34;5106764;28;20646;-77
2023/11/29 10:42:25;;;;;;;5.78;3.92;;;;;;;7.79;60.85;93919.06;5105742;28;20088;-75
2023/11/29 10:44:51;;;;;;;6.95;4.03;;;;;;;7.60;61.57;93909.94;5105116;28;20478;-74
2023/11/29 10:47:26;;;;;;;7.90;4.07;;;;;;;7.68;61.80;93926.84;5088604;28;20058;-74
2023/11/29 10:50:06;;;;;;;8.38;5.20;;;;;;;7.61;61.61;93921.63;5105995;28;20024;-76
2023/11/29 10:52:32;;;;;;;8.48;5.82;;;;;;;7.60;61.39;93923.59;5105210;28;20024;-74
2023/11/29 10:54:58;;;;;;;14.75;7.68;;;;;;;7.48;62.35;93943.56;5105679;28;20027;-74
2023/11/29 10:57:28;;;;;;;11.18;6.75;;;;;;;7.40;62.65;93962.16;5105092;28;20508;-75
2023/11/29 11:00:06;;;;;;;8.23;5.60;;;;;;;7.42;62.57;93956.25;5105681;28;20027;-75
2023/11/29 11:02:31;;;;;;;6.95;5.35;;;;;;;7.34;63.35;93957.66;5088373;28;20096;-74
2023/11/29 11:05:05;;;;;;;7.05;4.22;;;;;;;7.30;63.46;93962.50;5105729;28;20035;-75
2023/11/29 11:07:40;;;;;;;;;;;;;;;7.25;64.03;93957.59;5105771;28;20023;-74
2023/11/29 11:10:10;;;;;;;7.15;4.95;;;;;;;7.18;64.04;93973.00;5104925;28;19958;-74
2023/11/29 11:12:36;;;;;;;6.38;3.85;;;;;;;7.19;63.56;93968.31;5105051;28;20023;-74
2023/11/29 11:15:27;;;;;;;6.60;4.25;;;;;;;7.09;63.94;93972.13;5106245;28;20020;-75
2023/11/29 11:18:02;;;;;;;5.20;3.83;;;;;;;7.08;63.71;93968.63;5107124;28;20027;-76
2023/11/29 11:20:49;;;;;;;7.32;4.90;;;;;;;6.96;63.84;93979.56;5106393;28;20445;-76
2023/11/29 11:23:21;;;;;;;6.68;4.80;;;;;;;6.96;63.71;93977.59;5105293;28;20051;-76
2023/11/29 11:25:47;;;;;;;5.53;3.97;;;;;;;6.74;64.09;93968.50;5106249;28;20198;-76
2023/11/29 11:28:31;;;;;;;5.85;3.92;;;;;;;6.80;63.54;93991.34;5105792;27;20110;-77
2023/11/29 11:30:57;;;;;;;6.05;3.90;;;;;;;6.79;63.26;93978.88;5104521;28;20034;-75
2023/11/29 11:33:22;;;;;;;5.10;3.53;;;;;;;6.70;63.47;93968.59;5104994;28;20030;-75
2023/11/29 11:35:47;;;;;;;5.97;4.47;;;;;;;6.68;63.91;93983.91;5105972;28;20030;-75